createdAt,value
2022-11-06T00:00:34.184Z,47.90
2022-11-06T00:03:03.474Z,53.33
2022-11-06T00:05:49.827Z,52.37
2022-11-06T00:08:28.661Z,46.47
2022-11-06T00:10:57.132Z,46.33
2022-11-06T00:13:27.160Z,42.37
2022-11-06T00:15:55.475Z,51.40
2022-11-06T00:18:27.488Z,54.40
2022-11-06T00:20:55.718Z,46.57
2022-11-06T00:23:24.300Z,57.27
2022-11-06T00:25:56.532Z,51.50
2022-11-06T00:28:26.475Z,52.43
2022-11-06T00:31:02.645Z,39.63
2022-11-06T00:33:31.562Z,43.37
2022-11-06T00:36:00.153Z,48.30
2022-11-06T00:38:28.682Z,46.37
2022-11-06T00:40:56.872Z,43.03
2022-11-06T00:43:26.661Z,40.97
2022-11-06T00:45:54.815Z,43.27
2022-11-06T00:48:23.270Z,54.83
2022-11-06T00:50:51.452Z,62.90
2022-11-06T00:53:19.891Z,58.57
2022-11-06T00:55:48.086Z,59.30
2022-11-06T00:58:16.560Z,60.57
2022-11-06T01:00:46.079Z,54.83
2022-11-06T01:03:14.795Z,63.90
2022-11-06T01:05:42.955Z,59.67
2022-11-06T01:08:11.760Z,59.70
2022-11-06T01:10:40.201Z,59.53
2022-11-06T01:13:08.936Z,59.10
2022-11-06T01:15:37.981Z,55.50
2022-11-06T01:18:07.844Z,57.83
2022-11-06T01:20:38.155Z,60.90
2022-11-06T01:23:06.659Z,60.37
2022-11-06T01:25:34.959Z,59.37
2022-11-06T01:28:03.548Z,60.27
2022-11-06T01:30:31.905Z,60.60
2022-11-06T01:33:00.334Z,60.27
2022-11-06T01:35:30.002Z,61.93
2022-11-06T01:37:58.681Z,72.23
2022-11-06T01:40:26.968Z,77.33
2022-11-06T01:42:55.545Z,67.17
2022-11-06T01:45:34.441Z,63.70
2022-11-06T01:48:04.283Z,67.13
2022-11-06T01:50:34.655Z,69.97
2022-11-06T01:53:03.719Z,70.80
2022-11-06T01:55:36.862Z,74.53
2022-11-06T01:58:09.000Z,74.30
2022-11-06T02:00:37.210Z,76.70
2022-11-06T02:03:06.031Z,74.67
2022-11-06T02:05:36.622Z,77.03
2022-11-06T02:08:06.217Z,75.63
2022-11-06T02:10:34.535Z,76.03
2022-11-06T02:13:18.853Z,77.33
2022-11-06T02:15:51.098Z,74.83
2022-11-06T02:18:33.719Z,83.23
2022-11-06T02:21:40.813Z,76.97
2022-11-06T02:24:33.435Z,83.67
2022-11-06T02:27:10.393Z,80.67
2022-11-06T02:29:46.297Z,80.10
2022-11-06T02:32:19.694Z,77.27
2022-11-06T02:34:50.559Z,76.77
2022-11-06T02:37:22.657Z,76.47
2022-11-06T02:39:54.171Z,76.57
2022-11-06T02:42:26.674Z,76.50
2022-11-06T02:44:57.034Z,74.67
2022-11-06T02:47:28.718Z,76.10
2022-11-06T02:50:01.999Z,74.50
2022-11-06T02:52:35.282Z,70.47
2022-11-06T02:55:10.828Z,73.40
2022-11-06T02:57:45.079Z,68.87
2022-11-06T03:00:16.066Z,72.10
2022-11-06T03:02:47.828Z,71.27
2022-11-06T03:05:20.861Z,79.27
2022-11-06T03:07:54.453Z,83.73
2022-11-06T03:10:29.280Z,78.00
2022-11-06T03:13:04.972Z,73.80
2022-11-06T03:15:37.252Z,72.27
2022-11-06T03:18:12.302Z,67.17
2022-11-06T03:20:47.697Z,72.93
2022-11-06T03:23:23.814Z,73.30
2022-11-06T03:25:56.457Z,76.90
2022-11-06T03:28:32.204Z,71.57
2022-11-06T03:31:03.431Z,69.07
2022-11-06T03:33:36.889Z,71.03
2022-11-06T03:36:10.055Z,79.83
2022-11-06T03:38:42.592Z,72.33
2022-11-06T03:41:14.982Z,74.30
2022-11-06T03:43:46.568Z,76.30
2022-11-06T03:46:20.927Z,80.43
2022-11-06T03:48:53.657Z,73.47
2022-11-06T03:51:25.830Z,76.03
2022-11-06T03:53:59.294Z,79.07
2022-11-06T03:56:34.341Z,79.00
2022-11-06T03:59:07.147Z,77.30
2022-11-06T04:01:38.342Z,79.90
2022-11-06T04:04:13.375Z,79.57
2022-11-06T04:06:44.883Z,81.73
2022-11-06T04:09:33.744Z,79.27
2022-11-06T04:12:23.304Z,78.10
2022-11-06T04:14:56.048Z,76.83
2022-11-06T04:17:27.400Z,79.23
2022-11-06T04:19:59.388Z,77.83
2022-11-06T04:22:42.019Z,78.10
2022-11-06T04:25:47.132Z,78.53
2022-11-06T04:28:29.712Z,79.07
2022-11-06T04:31:07.567Z,78.33
2022-11-06T04:33:47.014Z,78.27
2022-11-06T04:36:23.113Z,80.87
2022-11-06T04:39:02.110Z,78.97
2022-11-06T04:41:35.960Z,81.87
2022-11-06T04:44:09.639Z,78.60
2022-11-06T04:46:44.609Z,81.03
2022-11-06T04:49:15.298Z,79.70
2022-11-06T04:51:45.968Z,79.50
2022-11-06T04:54:16.087Z,81.60
2022-11-06T04:56:46.336Z,79.23
2022-11-06T04:59:17.527Z,80.43
2022-11-06T05:01:47.495Z,79.33
2022-11-06T05:04:16.797Z,81.77
2022-11-06T05:06:45.065Z,77.87
2022-11-06T05:09:13.549Z,82.27
2022-11-06T05:11:41.768Z,46.13
2022-11-06T05:14:10.211Z,23.77
2022-11-06T05:16:38.642Z,24.50
2022-11-06T05:19:08.727Z,17.10
2022-11-06T05:21:54.263Z,14.77
2022-11-06T05:24:22.772Z,13.73
2022-11-06T05:26:56.122Z,11.47
2022-11-06T05:29:27.790Z,12.53
2022-11-06T05:31:56.087Z,12.00
2022-11-06T05:34:25.965Z,12.67
2022-11-06T05:36:54.334Z,11.23
2022-11-06T05:39:22.765Z,11.47
2022-11-06T05:41:50.903Z,12.63
2022-11-06T05:44:19.505Z,10.23
2022-11-06T05:46:49.693Z,11.83
2022-11-06T05:49:19.263Z,11.23
2022-11-06T05:51:48.887Z,12.23
2022-11-06T05:54:17.580Z,10.70
2022-11-06T05:56:45.950Z,12.50
2022-11-06T05:59:14.505Z,12.13
2022-11-06T06:01:42.972Z,12.03
2022-11-06T06:04:11.924Z,12.60
2022-11-06T06:06:40.744Z,12.37
2022-11-06T06:09:10.702Z,12.37
2022-11-06T06:11:38.907Z,12.77
2022-11-06T06:14:07.453Z,12.53
2022-11-06T06:16:35.664Z,11.50
2022-11-06T06:19:04.349Z,12.97
2022-11-06T06:21:32.528Z,12.33
2022-11-06T06:24:01.067Z,12.63
2022-11-06T06:26:30.749Z,14.20
2022-11-06T06:28:59.413Z,13.37
2022-11-06T06:31:27.625Z,13.23
2022-11-06T06:33:56.170Z,13.53
2022-11-06T06:36:24.322Z,13.53
2022-11-06T06:38:52.929Z,12.13
2022-11-06T06:41:21.359Z,13.33
2022-11-06T06:43:51.552Z,14.10
2022-11-06T06:46:19.788Z,13.13
2022-11-06T06:48:48.282Z,14.80
2022-11-06T06:51:21.015Z,12.53
2022-11-06T06:53:52.126Z,13.07
2022-11-06T06:56:20.399Z,11.73
2022-11-06T06:58:50.740Z,12.13
2022-11-06T07:01:19.067Z,11.37
2022-11-06T07:03:47.710Z,12.30
2022-11-06T07:06:15.867Z,12.93
2022-11-06T07:08:44.394Z,13.07
2022-11-06T07:11:12.667Z,11.80
2022-11-06T07:13:41.235Z,11.83
2022-11-06T07:16:12.517Z,12.43
2022-11-06T07:18:41.512Z,11.70
2022-11-06T07:21:11.692Z,11.70
2022-11-06T07:23:40.693Z,12.13
2022-11-06T07:26:08.960Z,12.63
2022-11-06T07:28:37.413Z,16.30
2022-11-06T07:31:08.213Z,15.63
2022-11-06T07:33:38.281Z,13.33
2022-11-06T07:36:07.934Z,12.33
2022-11-06T07:38:37.079Z,12.83
2022-11-06T07:41:06.996Z,12.50
2022-11-06T07:43:36.602Z,13.77
2022-11-06T07:46:07.499Z,11.93
2022-11-06T07:48:36.247Z,12.20
2022-11-06T07:51:08.474Z,12.00
2022-11-06T07:53:37.418Z,10.73
2022-11-06T07:56:06.183Z,9.93
2022-11-06T07:58:35.185Z,11.60
2022-11-06T08:01:03.871Z,17.03
2022-11-06T08:03:34.307Z,14.50
2022-11-06T08:06:05.979Z,12.13
2022-11-06T08:08:34.988Z,11.43
2022-11-06T08:11:04.137Z,10.47
2022-11-06T08:13:33.884Z,10.77
2022-11-06T08:16:06.176Z,9.70
2022-11-06T08:18:35.186Z,11.17
2022-11-06T08:21:05.221Z,9.83
2022-11-06T08:23:33.992Z,9.93
2022-11-06T08:26:04.472Z,9.77
2022-11-06T08:28:32.968Z,11.10
2022-11-06T08:31:05.193Z,9.13
2022-11-06T08:33:34.258Z,10.60
2022-11-06T08:36:03.584Z,9.83
2022-11-06T08:38:33.624Z,9.23
2022-11-06T08:41:06.087Z,8.90
2022-11-06T08:43:34.931Z,9.00
2022-11-06T08:46:03.548Z,8.87
2022-11-06T08:48:33.982Z,9.33
2022-11-06T08:51:02.878Z,9.93
2022-11-06T08:53:33.129Z,9.93
2022-11-06T08:56:03.830Z,11.13
2022-11-06T08:58:32.514Z,9.67
2022-11-06T09:01:00.799Z,9.90
2022-11-06T09:03:29.305Z,12.90
2022-11-06T09:05:57.483Z,11.40
2022-11-06T09:08:26.106Z,10.17
2022-11-06T09:10:58.572Z,9.87
2022-11-06T09:13:27.709Z,8.80
2022-11-06T09:15:56.090Z,8.50
2022-11-06T09:18:24.819Z,8.70
2022-11-06T09:20:55.976Z,10.57
2022-11-06T09:23:25.089Z,9.13
2022-11-06T09:25:53.343Z,9.13
2022-11-06T09:28:23.290Z,9.73
2022-11-06T09:30:51.543Z,9.00
2022-11-06T09:33:20.480Z,10.13
2022-11-06T09:35:49.059Z,10.20
2022-11-06T09:38:17.506Z,10.00
2022-11-06T09:40:50.795Z,10.70
2022-11-06T09:43:58.090Z,10.77
2022-11-06T09:46:22.958Z,9.70
2022-11-06T09:48:56.485Z,8.73
2022-11-06T09:51:33.968Z,9.50
2022-11-06T09:54:06.840Z,8.73
2022-11-06T09:56:39.460Z,11.47
2022-11-06T09:59:14.574Z,11.43
2022-11-06T10:01:46.674Z,10.27
2022-11-06T10:04:37.134Z,10.27
2022-11-06T10:07:05.548Z,10.70
2022-11-06T10:09:34.905Z,9.97
2022-11-06T10:12:14.647Z,10.23
2022-11-06T10:14:58.997Z,9.63
2022-11-06T10:17:42.570Z,10.70
2022-11-06T10:20:23.847Z,9.40
2022-11-06T10:23:05.627Z,8.70
2022-11-06T10:25:44.979Z,8.90
2022-11-06T10:28:28.356Z,9.10
2022-11-06T10:31:04.590Z,8.73
2022-11-06T10:33:48.431Z,8.77
2022-11-06T10:36:21.222Z,8.63
2022-11-06T10:38:51.305Z,10.30
2022-11-06T10:41:23.659Z,8.27
2022-11-06T10:43:54.761Z,9.67
2022-11-06T10:46:31.029Z,9.00
2022-11-06T10:49:01.670Z,9.00
2022-11-06T10:51:44.127Z,9.00
2022-11-06T10:54:26.796Z,7.70
2022-11-06T10:57:10.151Z,8.43
2022-11-06T10:59:38.494Z,7.43
2022-11-06T11:02:23.496Z,7.87
2022-11-06T11:04:56.768Z,7.80
2022-11-06T11:07:30.366Z,8.13
2022-11-06T11:09:58.797Z,8.13
2022-11-06T11:12:29.848Z,7.70
2022-11-06T11:15:23.393Z,8.70
2022-11-06T11:18:18.429Z,7.90
2022-11-06T11:20:48.294Z,8.13
2022-11-06T11:23:19.782Z,8.37
2022-11-06T11:25:50.020Z,11.40
2022-11-06T11:28:37.615Z,8.77
2022-11-06T11:31:09.408Z,8.57
2022-11-06T11:33:40.474Z,8.30
2022-11-06T11:36:10.930Z,7.77
2022-11-06T11:38:42.686Z,7.53
2022-11-06T11:41:14.710Z,7.57
2022-11-06T11:43:43.613Z,7.80
2022-11-06T11:46:21.619Z,6.77
2022-11-06T11:48:55.696Z,7.47
2022-11-06T11:51:30.740Z,6.60
2022-11-06T11:54:06.385Z,7.60
2022-11-06T11:57:03.023Z,7.67
2022-11-06T11:59:28.484Z,8.87
2022-11-06T12:01:59.590Z,8.97
2022-11-06T12:04:35.651Z,6.87
2022-11-06T12:07:06.833Z,6.17
2022-11-06T12:09:43.492Z,7.57
2022-11-06T12:12:22.852Z,6.43
2022-11-06T12:15:07.445Z,6.27
2022-11-06T12:17:40.274Z,6.13
2022-11-06T12:20:19.630Z,6.47
2022-11-06T12:22:50.409Z,6.53
2022-11-06T12:25:23.374Z,5.90
2022-11-06T12:27:55.057Z,5.80
2022-11-06T12:30:23.812Z,6.25
2022-11-06T12:33:01.884Z,6.70
2022-11-06T12:35:33.470Z,6.03
2022-11-06T12:38:13.868Z,5.33
2022-11-06T12:40:49.030Z,5.55
2022-11-06T12:43:23.363Z,5.70
2022-11-06T12:46:21.134Z,5.40
2022-11-06T12:49:33.939Z,5.88
2022-11-06T12:52:19.309Z,5.82
2022-11-06T12:55:06.970Z,5.28
2022-11-06T12:57:48.963Z,7.63
2022-11-06T13:00:20.851Z,11.10
2022-11-06T13:03:12.547Z,8.05
2022-11-06T13:05:48.626Z,6.22
2022-11-06T13:08:30.478Z,5.32
2022-11-06T13:11:13.810Z,5.85
2022-11-06T13:13:53.861Z,4.90
2022-11-06T13:16:30.976Z,5.35
2022-11-06T13:19:07.945Z,6.82
2022-11-06T13:21:53.567Z,6.90
2022-11-06T13:24:30.986Z,6.50
2022-11-06T13:27:04.742Z,4.85
2022-11-06T13:29:33.286Z,5.28
2022-11-06T13:32:05.321Z,5.57
2022-11-06T13:34:37.208Z,6.05
2022-11-06T13:37:13.532Z,5.38
2022-11-06T13:39:49.310Z,4.93
2022-11-06T13:42:24.321Z,5.70
2022-11-06T13:44:54.481Z,4.63
2022-11-06T13:47:29.294Z,4.32
2022-11-06T13:50:05.648Z,4.65
2022-11-06T13:52:41.540Z,4.95
2022-11-06T13:55:21.246Z,5.93
2022-11-06T13:58:15.608Z,4.72
2022-11-06T14:00:58.008Z,5.35
2022-11-06T14:03:42.991Z,5.47
2022-11-06T14:06:20.553Z,5.28
2022-11-06T14:08:52.347Z,5.30
2022-11-06T14:11:28.313Z,4.50
2022-11-06T14:14:02.413Z,5.65
2022-11-06T14:16:33.595Z,8.02
2022-11-06T14:19:05.878Z,4.82
2022-11-06T14:21:53.207Z,5.60
2022-11-06T14:24:40.129Z,4.97
2022-11-06T14:27:15.018Z,6.13
2022-11-06T14:30:03.029Z,6.07
2022-11-06T14:32:49.611Z,6.40
2022-11-06T14:35:51.695Z,7.00
2022-11-06T14:38:36.931Z,7.38
2022-11-06T14:41:48.947Z,7.40
2022-11-06T14:44:37.529Z,5.90
2022-11-06T14:47:10.412Z,7.72
2022-11-06T14:49:43.791Z,7.43
2022-11-06T14:52:14.854Z,7.55
2022-11-06T14:54:52.787Z,7.35
2022-11-06T14:57:37.207Z,6.43
2022-11-06T15:00:09.109Z,7.65
2022-11-06T15:02:38.673Z,6.65
2022-11-06T15:05:14.473Z,6.85
2022-11-06T15:08:05.866Z,7.55
2022-11-06T15:10:55.755Z,6.80
2022-11-06T15:13:30.003Z,7.68
2022-11-06T15:16:12.376Z,7.43
2022-11-06T15:18:46.166Z,8.60
2022-11-06T15:21:23.667Z,8.97
2022-11-06T15:24:03.811Z,9.60
2022-11-06T15:26:38.884Z,8.60
2022-11-06T15:29:18.052Z,7.77
2022-11-06T15:31:50.898Z,8.13
2022-11-06T15:34:25.203Z,8.10
2022-11-06T15:36:57.159Z,8.37
2022-11-06T15:39:35.251Z,7.60
2022-11-06T15:42:08.336Z,7.77
2022-11-06T15:44:42.054Z,7.73
2022-11-06T15:47:23.826Z,7.07
2022-11-06T15:50:12.059Z,6.90
2022-11-06T15:52:41.975Z,8.13
2022-11-06T15:55:23.296Z,6.90
2022-11-06T15:57:53.553Z,7.27
2022-11-06T16:00:26.552Z,6.40
2022-11-06T16:03:03.972Z,6.40
2022-11-06T16:05:36.281Z,7.67
2022-11-06T16:08:07.768Z,7.53
2022-11-06T16:10:38.723Z,7.37
2022-11-06T16:13:08.817Z,7.50
2022-11-06T16:15:53.774Z,6.83
2022-11-06T16:18:28.325Z,7.30
2022-11-06T16:21:02.167Z,7.47
2022-11-06T16:23:39.021Z,9.03
2022-11-06T16:26:11.530Z,8.03
2022-11-06T16:28:44.702Z,8.33
2022-11-06T16:31:17.598Z,7.10
2022-11-06T16:33:57.283Z,7.67
2022-11-06T16:36:28.393Z,8.87
2022-11-06T16:39:40.045Z,8.20
2022-11-06T16:42:30.912Z,8.40
2022-11-06T16:45:10.397Z,7.73
2022-11-06T16:47:40.657Z,11.73
2022-11-06T16:50:44.756Z,16.70
2022-11-06T16:53:20.675Z,27.83
2022-11-06T16:55:58.037Z,11.27
2022-11-06T16:58:30.380Z,9.63
2022-11-06T17:01:02.182Z,9.67
2022-11-06T17:03:40.034Z,10.40
2022-11-06T17:06:22.407Z,10.37
2022-11-06T17:09:27.954Z,10.63
2022-11-06T17:11:57.625Z,11.30
2022-11-06T17:14:27.450Z,10.50
2022-11-06T17:16:57.971Z,9.47
2022-11-06T17:19:28.322Z,11.23
2022-11-06T17:21:58.778Z,9.37
2022-11-06T17:24:42.671Z,10.70
2022-11-06T17:27:11.011Z,10.00
2022-11-06T17:29:39.695Z,10.97
2022-11-06T17:32:08.060Z,10.40
2022-11-06T17:34:36.568Z,10.27
2022-11-06T17:37:06.240Z,9.60
2022-11-06T17:39:34.734Z,10.07
2022-11-06T17:42:03.116Z,10.30
2022-11-06T17:44:32.154Z,11.80
2022-11-06T17:47:00.444Z,11.10
2022-11-06T17:49:28.987Z,11.43
2022-11-06T17:52:00.993Z,12.73
2022-11-06T17:54:33.009Z,18.13
2022-11-06T17:57:04.637Z,24.77
2022-11-06T17:59:35.667Z,17.00
2022-11-06T18:02:04.951Z,12.77
2022-11-06T18:04:34.693Z,12.97
2022-11-06T18:07:03.595Z,12.03
2022-11-06T18:09:35.139Z,10.97
2022-11-06T18:12:09.152Z,11.10
2022-11-06T18:14:38.368Z,10.87
2022-11-06T18:17:06.731Z,11.83
2022-11-06T18:19:36.017Z,14.47
2022-11-06T18:22:06.826Z,11.23
2022-11-06T18:24:40.992Z,13.03
2022-11-06T18:27:09.370Z,13.50
2022-11-06T18:29:37.943Z,13.07
2022-11-06T18:32:06.854Z,11.53
2022-11-06T18:34:35.587Z,13.43
2022-11-06T18:37:04.357Z,12.60
2022-11-06T18:39:33.532Z,12.80
2022-11-06T18:42:03.537Z,12.43
2022-11-06T18:44:35.041Z,12.67
2022-11-06T18:47:04.196Z,11.83
2022-11-06T18:49:32.961Z,14.47
2022-11-06T18:52:02.157Z,12.93
2022-11-06T18:54:31.666Z,13.27
2022-11-06T18:57:01.307Z,13.53
2022-11-06T18:59:33.181Z,15.57
2022-11-06T19:02:04.479Z,13.23
2022-11-06T19:04:35.349Z,13.73
2022-11-06T19:07:04.657Z,12.73
2022-11-06T19:09:34.996Z,15.87
2022-11-06T19:12:03.910Z,14.40
2022-11-06T19:14:36.652Z,14.63
2022-11-06T19:17:05.997Z,14.00
2022-11-06T19:19:35.673Z,14.77
2022-11-06T19:22:06.299Z,14.67
2022-11-06T19:24:35.561Z,15.53
2022-11-06T19:27:04.355Z,23.67
2022-11-06T19:29:35.747Z,15.80
2022-11-06T19:32:04.936Z,16.50
2022-11-06T19:34:39.209Z,16.87
2022-11-06T19:37:09.336Z,15.03
2022-11-06T19:39:38.713Z,14.93
2022-11-06T19:42:08.180Z,14.77
2022-11-06T19:44:39.509Z,15.80
2022-11-06T19:47:09.743Z,14.13
2022-11-06T19:49:39.955Z,15.73
2022-11-06T19:52:41.170Z,14.43
2022-11-06T19:55:26.367Z,14.60
2022-11-06T19:57:52.646Z,13.83
2022-11-06T20:00:25.619Z,14.23
2022-11-06T20:02:54.467Z,14.47
2022-11-06T20:05:23.543Z,14.03
2022-11-06T20:07:53.433Z,13.83
2022-11-06T20:10:26.567Z,13.97
2022-11-06T20:12:55.789Z,13.83
2022-11-06T20:15:29.641Z,14.27
2022-11-06T20:17:59.169Z,13.33
2022-11-06T20:20:33.265Z,14.77
2022-11-06T20:23:04.757Z,12.50
2022-11-06T20:25:33.977Z,14.20
2022-11-06T20:28:02.403Z,14.13
2022-11-06T20:30:33.341Z,13.93
2022-11-06T20:33:02.432Z,12.77
2022-11-06T20:35:31.298Z,14.53
2022-11-06T20:38:00.214Z,13.40
2022-11-06T20:40:31.988Z,13.97
2022-11-06T20:43:03.528Z,12.87
2022-11-06T20:45:37.098Z,14.07
2022-11-06T20:48:06.368Z,16.07
2022-11-06T20:50:35.532Z,17.17
2022-11-06T20:53:03.920Z,14.30
2022-11-06T20:55:32.746Z,12.43
2022-11-06T20:58:01.880Z,12.00
2022-11-06T21:00:30.798Z,13.47
2022-11-06T21:03:02.115Z,13.33
2022-11-06T21:05:30.828Z,13.63
2022-11-06T21:07:59.112Z,13.33
2022-11-06T21:10:27.682Z,13.57
2022-11-06T21:12:56.766Z,14.53
2022-11-06T21:15:25.550Z,12.73
2022-11-06T21:17:53.814Z,13.23
2022-11-06T21:20:23.764Z,13.53
2022-11-06T21:22:52.022Z,11.70
2022-11-06T21:25:20.629Z,13.47
2022-11-06T21:27:48.850Z,13.27
2022-11-06T21:30:17.579Z,12.63
2022-11-06T21:32:45.853Z,14.03
2022-11-06T21:35:14.504Z,13.13
2022-11-06T21:37:44.118Z,12.67
2022-11-06T21:40:17.281Z,13.57
2022-11-06T21:42:45.825Z,13.00
2022-11-06T21:45:15.109Z,13.90
2022-11-06T21:47:43.447Z,12.23
2022-11-06T21:50:12.857Z,13.33
2022-11-06T21:52:58.266Z,12.73
2022-11-06T21:55:48.844Z,12.93
2022-11-06T21:58:21.036Z,12.23
2022-11-06T22:00:49.525Z,12.13
2022-11-06T22:03:18.275Z,11.73
2022-11-06T22:05:46.871Z,12.03
2022-11-06T22:08:15.372Z,12.57
2022-11-06T22:10:45.413Z,13.00
2022-11-06T22:13:13.888Z,19.03
2022-11-06T22:15:42.666Z,15.93
2022-11-06T22:18:10.986Z,13.23
2022-11-06T22:20:39.565Z,13.30
2022-11-06T22:23:07.772Z,12.87
2022-11-06T22:25:36.211Z,14.57
2022-11-06T22:28:06.135Z,12.37
2022-11-06T22:30:34.601Z,12.90
2022-11-06T22:33:02.868Z,12.70
2022-11-06T22:35:31.521Z,13.67
2022-11-06T22:37:59.718Z,12.60
2022-11-06T22:40:28.630Z,14.80
2022-11-06T22:42:57.024Z,12.50
2022-11-06T22:45:27.338Z,11.80
2022-11-06T22:47:55.628Z,12.47
2022-11-06T22:50:24.528Z,13.43
2022-11-06T22:52:52.834Z,12.60
2022-11-06T22:55:21.293Z,13.20
2022-11-06T22:57:49.697Z,12.97
2022-11-06T23:00:22.173Z,12.83
2022-11-06T23:02:51.988Z,16.17
2022-11-06T23:05:20.438Z,12.13
2022-11-06T23:07:48.697Z,11.30
2022-11-06T23:10:28.624Z,13.20
2022-11-06T23:12:57.816Z,12.20
2022-11-06T23:15:26.692Z,12.07
2022-11-06T23:17:56.667Z,14.17
2022-11-06T23:20:25.671Z,12.83
2022-11-06T23:22:54.551Z,14.53
2022-11-06T23:25:22.906Z,13.93
2022-11-06T23:27:51.369Z,13.20
2022-11-06T23:30:19.809Z,12.77
2022-11-06T23:32:48.592Z,14.77
2022-11-06T23:35:19.528Z,13.17
2022-11-06T23:37:50.782Z,13.27
2022-11-06T23:40:19.272Z,14.13
2022-11-06T23:42:49.777Z,13.90
2022-11-06T23:45:35.798Z,13.80
2022-11-06T23:48:08.433Z,14.03
2022-11-06T23:50:38.544Z,13.53
2022-11-06T23:53:07.192Z,15.07
2022-11-06T23:55:35.577Z,14.77
2022-11-06T23:58:04.726Z,13.67
